createdAt,value
2017-12-17T00:01:44.089Z,2.22
2017-12-17T00:04:13.428Z,2.15
2017-12-17T00:06:42.439Z,2.20
2017-12-17T00:09:11.439Z,2.09
2017-12-17T00:11:40.846Z,2.16
2017-12-17T00:14:09.855Z,2.18
2017-12-17T00:16:38.897Z,2.10
2017-12-17T00:19:07.925Z,2.17
2017-12-17T00:21:37.362Z,2.19
2017-12-17T00:24:06.289Z,2.17
2017-12-17T00:26:35.277Z,2.13
2017-12-17T00:29:04.603Z,2.09
2017-12-17T00:31:33.948Z,2.12
2017-12-17T00:34:03.324Z,2.11
2017-12-17T00:36:32.627Z,2.01
2017-12-17T00:39:02.282Z,2.01
2017-12-17T00:41:31.685Z,2.01
2017-12-17T00:44:00.995Z,2.08
2017-12-17T00:46:30.401Z,2.06
2017-12-17T00:48:59.778Z,2.03
2017-12-17T00:51:29.117Z,2.04
2017-12-17T00:53:58.070Z,1.96
2017-12-17T00:56:27.415Z,1.96
2017-12-17T00:58:56.769Z,1.98
2017-12-17T01:01:26.260Z,1.98
2017-12-17T01:03:55.554Z,1.97
2017-12-17T01:06:24.835Z,1.93
2017-12-17T01:08:54.166Z,1.94
2017-12-17T01:11:23.578Z,1.93
2017-12-17T01:13:53.021Z,1.81
2017-12-17T01:16:22.328Z,1.87
2017-12-17T01:18:51.127Z,1.89
2017-12-17T01:21:20.520Z,1.86
2017-12-17T01:23:49.823Z,1.80
2017-12-17T01:26:19.157Z,1.82
2017-12-17T01:28:48.558Z,1.76
2017-12-17T01:31:17.883Z,1.81
2017-12-17T01:33:47.239Z,1.83
2017-12-17T01:36:16.561Z,1.92
2017-12-17T01:38:47.401Z,1.88
2017-12-17T01:41:16.458Z,1.82
2017-12-17T01:43:45.543Z,1.80
2017-12-17T01:46:14.593Z,1.65
2017-12-17T01:48:43.507Z,1.60
2017-12-17T01:51:12.859Z,1.60
2017-12-17T01:53:42.262Z,1.67
2017-12-17T01:56:11.289Z,1.51
2017-12-17T01:58:40.260Z,1.37
2017-12-17T02:01:09.588Z,1.28
2017-12-17T02:03:38.891Z,1.22
2017-12-17T02:06:07.866Z,1.17
2017-12-17T02:08:37.186Z,1.05
2017-12-17T02:11:06.159Z,0.95
2017-12-17T02:13:35.132Z,0.98
2017-12-17T02:16:04.139Z,1.03
2017-12-17T02:18:33.246Z,1.08
2017-12-17T02:21:02.293Z,1.12
2017-12-17T02:23:31.590Z,1.11
2017-12-17T02:26:00.654Z,1.18
2017-12-17T02:28:29.702Z,1.29
2017-12-17T02:30:58.890Z,1.37
2017-12-17T02:33:27.879Z,1.39
2017-12-17T02:35:56.823Z,1.38
2017-12-17T02:38:25.863Z,1.52
2017-12-17T02:40:54.880Z,1.58
2017-12-17T02:43:23.835Z,1.64
2017-12-17T02:46:12.249Z,1.75
2017-12-17T02:48:43.843Z,1.70
2017-12-17T02:51:12.787Z,1.71
2017-12-17T02:53:41.795Z,1.80
2017-12-17T02:56:18.870Z,1.74
2017-12-17T02:58:50.862Z,1.81
2017-12-17T03:01:20.133Z,1.77
2017-12-17T03:03:49.183Z,1.94
2017-12-17T03:06:18.225Z,1.99
2017-12-17T03:08:47.218Z,1.97
2017-12-17T03:11:16.149Z,1.98
2017-12-17T03:13:45.221Z,1.93
2017-12-17T03:16:14.241Z,1.92
2017-12-17T03:18:43.189Z,1.91
2017-12-17T03:21:12.201Z,1.89
2017-12-17T03:23:41.441Z,1.89
2017-12-17T03:26:10.447Z,1.85
2017-12-17T03:28:39.612Z,1.87
2017-12-17T03:31:08.885Z,1.83
2017-12-17T03:33:38.929Z,1.82
2017-12-17T03:36:07.923Z,1.85
2017-12-17T03:38:37.131Z,1.86
2017-12-17T03:41:06.137Z,1.82
2017-12-17T03:43:35.114Z,1.78
2017-12-17T03:46:04.115Z,1.80
2017-12-17T03:48:33.474Z,1.70
2017-12-17T03:51:02.577Z,1.55
2017-12-17T03:53:36.352Z,1.44
2017-12-17T03:56:08.274Z,1.43
2017-12-17T03:58:37.535Z,1.46
2017-12-17T04:01:06.565Z,1.55
2017-12-17T04:03:35.309Z,1.54
2017-12-17T04:06:04.098Z,1.52
2017-12-17T04:08:33.085Z,1.57
2017-12-17T04:11:02.102Z,1.58
2017-12-17T04:13:31.168Z,1.46
2017-12-17T04:16:00.474Z,1.44
2017-12-17T04:18:29.522Z,1.55
2017-12-17T04:20:58.591Z,1.64
2017-12-17T04:23:27.700Z,1.61
2017-12-17T04:25:56.843Z,1.55
2017-12-17T04:28:26.360Z,1.59
2017-12-17T04:30:55.442Z,1.66
2017-12-17T04:33:24.447Z,1.57
2017-12-17T04:35:53.611Z,1.55
2017-12-17T04:38:23.058Z,1.56
2017-12-17T04:40:52.190Z,1.58
2017-12-17T04:43:21.188Z,1.63
2017-12-17T04:45:50.169Z,1.62
2017-12-17T04:48:19.126Z,1.64
2017-12-17T04:50:48.206Z,1.56
2017-12-17T04:53:17.152Z,1.47
2017-12-17T04:55:46.108Z,1.38
2017-12-17T04:58:15.489Z,1.37
2017-12-17T05:00:44.732Z,1.44
2017-12-17T05:03:14.119Z,1.57
2017-12-17T05:05:43.164Z,1.62
2017-12-17T05:08:12.118Z,1.59
2017-12-17T05:10:41.190Z,1.50
2017-12-17T05:13:10.193Z,1.35
2017-12-17T05:15:39.531Z,1.24
2017-12-17T05:18:08.608Z,1.26
2017-12-17T05:20:37.580Z,1.18
2017-12-17T05:23:06.588Z,1.10
2017-12-17T05:25:39.577Z,1.11
2017-12-17T05:28:08.577Z,1.17
2017-12-17T05:30:37.949Z,1.30
2017-12-17T05:33:07.389Z,1.31
2017-12-17T05:35:36.581Z,1.35
2017-12-17T05:38:05.549Z,1.37
2017-12-17T05:40:34.822Z,1.40
2017-12-17T05:43:03.839Z,1.43
2017-12-17T05:45:32.911Z,1.50
2017-12-17T05:48:01.917Z,1.42
2017-12-17T05:50:31.565Z,1.47
2017-12-17T05:53:00.522Z,1.48
2017-12-17T05:55:29.535Z,1.62
2017-12-17T05:57:59.555Z,1.54
2017-12-17T06:00:28.702Z,1.64
2017-12-17T06:02:57.671Z,1.57
2017-12-17T06:05:26.657Z,1.59
2017-12-17T06:07:55.636Z,1.70
2017-12-17T06:10:24.663Z,1.69
2017-12-17T06:12:53.973Z,1.73
2017-12-17T06:15:23.005Z,1.76
2017-12-17T06:17:52.312Z,1.81
2017-12-17T06:20:21.288Z,1.82
2017-12-17T06:22:50.264Z,1.91
2017-12-17T06:25:19.289Z,1.90
2017-12-17T06:27:48.706Z,1.81
2017-12-17T06:30:17.660Z,1.75
2017-12-17T06:32:48.471Z,1.71
2017-12-17T06:35:17.581Z,1.68
2017-12-17T06:37:46.435Z,1.70
2017-12-17T06:40:18.131Z,1.65
2017-12-17T06:42:47.059Z,1.68
2017-12-17T06:45:16.703Z,1.69
2017-12-17T06:47:45.733Z,1.75
2017-12-17T06:50:14.666Z,1.73
2017-12-17T06:52:43.701Z,1.70
2017-12-17T06:55:12.976Z,1.62
2017-12-17T06:57:42.234Z,1.70
2017-12-17T07:00:12.077Z,1.72
2017-12-17T07:02:41.652Z,1.86
2017-12-17T07:05:11.952Z,1.88
2017-12-17T07:07:41.188Z,2.06
2017-12-17T07:10:10.609Z,2.16
2017-12-17T07:12:39.801Z,2.17
2017-12-17T07:15:08.732Z,2.42
2017-12-17T07:17:37.742Z,2.40
2017-12-17T07:20:06.964Z,2.35
2017-12-17T07:22:35.912Z,2.40
2017-12-17T07:25:05.106Z,2.47
2017-12-17T07:27:34.541Z,2.52
2017-12-17T07:30:03.457Z,2.53
2017-12-17T07:32:32.402Z,2.60
2017-12-17T07:35:01.317Z,2.54
2017-12-17T07:37:30.296Z,2.52
2017-12-17T07:39:59.308Z,2.58
2017-12-17T07:42:28.265Z,2.45
2017-12-17T07:44:57.190Z,2.51
2017-12-17T07:47:26.372Z,2.51
2017-12-17T07:49:55.612Z,2.63
2017-12-17T07:52:24.583Z,2.61
2017-12-17T07:54:53.477Z,2.56
2017-12-17T07:57:22.414Z,2.60
2017-12-17T07:59:52.047Z,2.57
2017-12-17T08:02:30.816Z,2.72
2017-12-17T08:05:02.825Z,2.77
2017-12-17T08:07:31.884Z,2.78
2017-12-17T08:10:01.939Z,2.76
2017-12-17T08:12:31.300Z,2.71
2017-12-17T08:15:00.716Z,2.62
2017-12-17T08:17:30.060Z,2.68
2017-12-17T08:19:59.287Z,2.65
2017-12-17T08:22:28.785Z,2.59
2017-12-17T08:24:58.674Z,2.48
2017-12-17T08:27:27.773Z,2.45
2017-12-17T08:29:57.072Z,2.45
2017-12-17T08:32:26.514Z,2.39
2017-12-17T08:34:55.640Z,2.29
2017-12-17T08:37:25.173Z,2.29
2017-12-17T08:39:56.928Z,2.36
2017-12-17T08:42:26.553Z,2.41
2017-12-17T08:47:30.634Z,2.55
2017-12-17T08:50:01.425Z,2.59
2017-12-17T08:52:30.573Z,2.58
2017-12-17T08:55:00.453Z,2.56
2017-12-17T08:57:29.794Z,2.61
2017-12-17T08:59:59.178Z,2.63
2017-12-17T09:02:28.480Z,2.75
2017-12-17T09:04:57.580Z,2.80
2017-12-17T09:07:26.645Z,2.77
2017-12-17T09:09:56.083Z,2.82
2017-12-17T09:12:25.157Z,2.95
2017-12-17T09:14:54.566Z,2.90
2017-12-17T09:17:23.611Z,2.96
2017-12-17T09:19:52.771Z,3.07
2017-12-17T09:29:21.027Z,3.71
2017-12-17T09:31:50.335Z,4.00
2017-12-17T09:34:19.473Z,4.08
2017-12-17T09:36:49.144Z,3.97
2017-12-17T09:39:18.773Z,3.85
2017-12-17T09:41:48.169Z,4.09
2017-12-17T09:44:17.133Z,4.23
2017-12-17T09:46:46.466Z,4.37
2017-12-17T09:49:15.571Z,4.10
2017-12-17T09:51:46.904Z,4.05
2017-12-17T09:54:16.968Z,4.04
2017-12-17T09:56:46.063Z,3.99
2017-12-17T09:59:15.756Z,3.83
2017-12-17T10:01:45.943Z,3.93
2017-12-17T10:04:15.337Z,3.92
2017-12-17T10:06:44.680Z,4.03
2017-12-17T10:09:13.827Z,4.15
2017-12-17T10:11:46.658Z,4.04
2017-12-17T10:14:15.807Z,4.09
2017-12-17T10:16:44.824Z,4.11
2017-12-17T10:19:13.915Z,4.17
2017-12-17T10:21:42.949Z,4.50
2017-12-17T10:24:12.380Z,4.38
2017-12-17T10:26:48.629Z,4.57
2017-12-17T10:29:17.709Z,4.49
2017-12-17T10:31:48.836Z,4.27
2017-12-17T10:34:17.796Z,4.35
2017-12-17T10:36:46.936Z,4.36
2017-12-17T10:39:16.433Z,4.79
2017-12-17T10:41:45.567Z,5.00
2017-12-17T10:44:14.910Z,4.75
2017-12-17T10:46:43.994Z,4.88
2017-12-17T10:49:13.597Z,4.72
2017-12-17T10:51:43.586Z,5.65
2017-12-17T10:54:14.091Z,5.56
2017-12-17T10:56:43.024Z,5.47
2017-12-17T10:59:12.060Z,5.28
2017-12-17T11:01:41.822Z,5.47
2017-12-17T11:04:10.964Z,6.29
2017-12-17T11:06:40.592Z,6.16
2017-12-17T11:09:09.844Z,5.83
2017-12-17T11:11:39.186Z,5.74
2017-12-17T11:14:08.196Z,5.89
2017-12-17T11:16:37.875Z,7.59
2017-12-17T11:19:09.300Z,10.08
2017-12-17T11:21:38.888Z,9.99
2017-12-17T11:24:07.884Z,10.09
2017-12-17T11:26:37.328Z,9.66
2017-12-17T11:29:10.086Z,10.18
2017-12-17T11:31:39.122Z,10.55
2017-12-17T11:34:08.505Z,13.01
2017-12-17T11:36:37.503Z,14.90
2017-12-17T11:39:06.561Z,13.04
2017-12-17T11:41:35.474Z,11.28
2017-12-17T11:44:04.876Z,9.00
2017-12-17T11:46:35.197Z,7.93
2017-12-17T11:49:05.909Z,6.61
2017-12-17T11:51:36.596Z,5.57
2017-12-17T11:54:06.115Z,5.04
2017-12-17T11:56:35.111Z,4.95
2017-12-17T11:59:04.550Z,4.69
2017-12-17T12:01:35.739Z,4.65
2017-12-17T12:04:04.708Z,4.69
2017-12-17T12:06:33.679Z,4.59
2017-12-17T12:09:03.493Z,4.90
2017-12-17T12:11:32.573Z,5.46
2017-12-17T12:14:01.569Z,5.54
2017-12-17T12:16:31.086Z,5.05
2017-12-17T12:19:01.343Z,4.73
2017-12-17T12:21:30.908Z,4.68
2017-12-17T12:24:00.024Z,4.72
2017-12-17T12:26:29.121Z,4.54
2017-12-17T12:28:58.476Z,4.77
2017-12-17T12:31:27.822Z,4.69
2017-12-17T12:33:56.868Z,4.97
2017-12-17T12:36:26.152Z,5.34
2017-12-17T12:38:55.740Z,8.57
2017-12-17T12:41:24.842Z,9.67
2017-12-17T12:43:54.347Z,10.00
2017-12-17T12:46:23.688Z,10.31
2017-12-17T12:48:52.755Z,9.97
2017-12-17T12:51:21.811Z,8.24
2017-12-17T12:53:50.714Z,7.16
2017-12-17T12:56:19.894Z,6.62
2017-12-17T12:58:49.149Z,6.43
2017-12-17T13:01:18.382Z,5.81
2017-12-17T13:03:48.141Z,5.40
2017-12-17T13:06:17.428Z,5.19
2017-12-17T13:08:47.511Z,5.30
2017-12-17T13:11:16.894Z,5.19
2017-12-17T13:13:46.441Z,4.72
2017-12-17T13:16:15.579Z,4.79
2017-12-17T13:18:46.055Z,4.83
2017-12-17T13:23:50.228Z,4.47
2017-12-17T13:26:19.710Z,4.44
2017-12-17T13:31:22.552Z,3.99
2017-12-17T13:33:55.073Z,3.97
2017-12-17T13:36:25.395Z,3.94
2017-12-17T13:38:54.395Z,3.79
2017-12-17T13:43:56.522Z,3.84
2017-12-17T13:46:27.972Z,3.62
2017-12-17T13:48:57.763Z,3.40
2017-12-17T13:51:27.062Z,3.38
2017-12-17T13:53:56.490Z,3.27
2017-12-17T13:56:25.607Z,2.99
2017-12-17T14:01:32.173Z,2.13
2017-12-17T14:04:02.463Z,1.92
2017-12-17T14:06:31.655Z,1.90
2017-12-17T14:09:01.115Z,1.85
2017-12-17T14:11:30.569Z,1.82
2017-12-17T14:13:59.947Z,1.73
2017-12-17T14:16:29.629Z,1.61
2017-12-17T14:18:59.044Z,1.54
2017-12-17T14:21:28.299Z,1.70
2017-12-17T14:23:57.527Z,1.65
2017-12-17T14:26:27.460Z,1.80
2017-12-17T14:28:56.411Z,1.76
2017-12-17T14:31:25.348Z,1.64
2017-12-17T14:33:54.286Z,1.58
2017-12-17T14:36:23.307Z,1.51
2017-12-17T14:39:03.858Z,1.47
2017-12-17T14:41:32.725Z,1.42
2017-12-17T14:44:02.229Z,1.38
2017-12-17T14:46:32.162Z,1.27
2017-12-17T14:49:01.606Z,1.13
2017-12-17T14:51:31.456Z,0.97
2017-12-17T14:54:01.251Z,0.89
2017-12-17T14:56:30.718Z,0.90
2017-12-17T14:59:00.084Z,0.74
2017-12-17T15:01:29.572Z,0.66
2017-12-17T15:03:59.010Z,0.66
2017-12-17T15:06:28.508Z,0.70
2017-12-17T15:08:58.146Z,0.59
2017-12-17T15:11:27.653Z,0.45
2017-12-17T15:13:57.218Z,0.49
2017-12-17T15:16:26.933Z,0.48
2017-12-17T15:18:58.286Z,0.55
2017-12-17T15:21:27.960Z,0.59
2017-12-17T15:23:57.674Z,0.61
2017-12-17T15:26:27.159Z,0.58
2017-12-17T15:28:56.949Z,0.67
2017-12-17T15:31:26.485Z,0.74
2017-12-17T15:33:55.747Z,0.71
2017-12-17T15:36:25.322Z,0.81
2017-12-17T15:38:54.847Z,0.88
2017-12-17T15:41:24.591Z,0.93
2017-12-17T15:43:54.884Z,0.98
2017-12-17T15:46:25.978Z,1.02
2017-12-17T15:48:55.522Z,1.06
2017-12-17T15:51:25.157Z,1.02
2017-12-17T15:53:54.685Z,1.08
2017-12-17T15:56:23.941Z,1.07
2017-12-17T15:58:53.779Z,1.12
2017-12-17T16:01:23.230Z,1.16
2017-12-17T16:03:53.593Z,1.08
2017-12-17T16:06:23.872Z,1.15
2017-12-17T16:08:53.101Z,1.10
2017-12-17T16:11:22.585Z,1.11
2017-12-17T16:13:52.479Z,1.18
2017-12-17T16:16:22.340Z,1.16
2017-12-17T16:18:53.291Z,1.25
2017-12-17T16:21:23.292Z,1.28
2017-12-17T16:23:53.424Z,1.34
2017-12-17T16:26:23.846Z,1.23
2017-12-17T16:28:53.832Z,1.21
2017-12-17T16:31:23.765Z,1.28
2017-12-17T16:33:53.748Z,1.18
2017-12-17T16:36:23.724Z,1.24
2017-12-17T16:38:53.601Z,1.22
2017-12-17T16:41:23.523Z,1.23
2017-12-17T16:43:53.616Z,1.16
2017-12-17T16:46:23.536Z,1.11
2017-12-17T16:48:53.347Z,1.23
2017-12-17T16:51:24.235Z,1.21
2017-12-17T16:53:54.411Z,1.15
2017-12-17T16:56:25.422Z,1.25
2017-12-17T16:58:55.222Z,1.24
2017-12-17T17:01:25.016Z,1.20
2017-12-17T17:03:54.813Z,1.23
2017-12-17T17:06:24.650Z,1.23
2017-12-17T17:08:54.530Z,1.32
2017-12-17T17:11:24.355Z,1.31
2017-12-17T17:13:54.164Z,1.18
2017-12-17T17:16:24.125Z,1.22
2017-12-17T17:18:53.915Z,1.22
2017-12-17T17:21:23.728Z,1.22
2017-12-17T17:23:53.880Z,1.41
2017-12-17T17:26:23.717Z,1.39
2017-12-17T17:28:53.731Z,1.20
2017-12-17T17:31:23.545Z,1.20
2017-12-17T17:33:53.346Z,1.02
2017-12-17T17:36:23.161Z,1.01
2017-12-17T17:38:53.009Z,1.13
2017-12-17T17:41:22.585Z,1.14
2017-12-17T17:43:52.110Z,1.11
2017-12-17T17:46:21.734Z,1.08
2017-12-17T17:48:51.570Z,1.03
2017-12-17T17:51:21.587Z,1.01
2017-12-17T17:53:51.385Z,1.04
2017-12-17T17:56:21.193Z,1.00
2017-12-17T17:58:51.412Z,1.01
2017-12-17T18:01:21.359Z,1.04
2017-12-17T18:03:51.333Z,1.02
2017-12-17T18:06:21.272Z,0.96
2017-12-17T18:08:51.187Z,1.00
2017-12-17T18:11:21.670Z,0.96
2017-12-17T18:13:51.498Z,0.91
2017-12-17T18:16:21.344Z,1.01
2017-12-17T18:18:51.150Z,0.90
2017-12-17T18:21:21.094Z,0.96
2017-12-17T18:23:50.958Z,0.98
2017-12-17T18:26:21.192Z,0.95
2017-12-17T18:28:51.135Z,0.95
2017-12-17T18:31:21.106Z,0.95
2017-12-17T18:33:51.039Z,0.98
2017-12-17T18:36:20.903Z,0.94
2017-12-17T18:38:50.746Z,1.00
2017-12-17T18:41:20.645Z,0.98
2017-12-17T18:43:50.730Z,0.96
2017-12-17T18:46:20.555Z,0.98
2017-12-17T18:48:50.412Z,0.95
2017-12-17T18:51:20.287Z,0.98
2017-12-17T18:53:50.105Z,0.99
2017-12-17T18:56:19.930Z,1.00
2017-12-17T18:58:49.819Z,1.10
2017-12-17T19:01:19.943Z,1.17
2017-12-17T19:03:49.799Z,1.10
2017-12-17T19:06:19.792Z,1.06
2017-12-17T19:08:50.096Z,1.09
2017-12-17T19:11:19.903Z,1.17
2017-12-17T19:14:03.103Z,1.46
2017-12-17T19:16:35.971Z,1.45
2017-12-17T19:19:15.360Z,1.23
2017-12-17T19:21:46.273Z,1.18
2017-12-17T19:24:16.208Z,1.13
2017-12-17T19:26:46.051Z,1.17
2017-12-17T19:29:15.936Z,1.09
2017-12-17T19:31:46.038Z,1.01
2017-12-17T19:34:15.968Z,1.00
2017-12-17T19:36:45.938Z,0.94
2017-12-17T19:39:15.969Z,0.94
2017-12-17T19:41:45.942Z,0.93
2017-12-17T19:44:15.816Z,0.95
2017-12-17T19:46:46.573Z,0.86
2017-12-17T19:49:17.028Z,0.88
2017-12-17T19:51:46.966Z,0.84
2017-12-17T19:54:16.959Z,0.91
2017-12-17T19:56:46.963Z,0.92
2017-12-17T19:59:16.894Z,0.84
2017-12-17T20:01:47.628Z,0.75
2017-12-17T20:04:18.194Z,0.82
2017-12-17T20:06:48.270Z,0.81
2017-12-17T20:09:18.252Z,0.77
2017-12-17T20:11:48.489Z,0.81
2017-12-17T20:14:18.321Z,0.80
2017-12-17T20:16:48.204Z,0.85
2017-12-17T20:19:17.896Z,0.83
2017-12-17T20:21:47.539Z,0.92
2017-12-17T20:24:17.197Z,0.90
2017-12-17T20:26:46.912Z,0.88
2017-12-17T20:29:16.548Z,0.91
2017-12-17T20:31:46.427Z,0.86
2017-12-17T20:34:16.111Z,0.83
2017-12-17T20:36:46.020Z,0.95
2017-12-17T20:39:15.927Z,0.96
2017-12-17T20:41:45.859Z,0.94
2017-12-17T20:44:15.744Z,0.89
2017-12-17T20:46:45.612Z,0.89
2017-12-17T20:49:15.860Z,0.80
2017-12-17T20:51:45.712Z,0.88
2017-12-17T20:54:15.541Z,0.85
2017-12-17T20:56:45.460Z,0.88
2017-12-17T20:59:15.293Z,0.92
2017-12-17T21:01:56.653Z,1.11
2017-12-17T21:04:28.922Z,1.15
2017-12-17T21:06:58.728Z,1.09
2017-12-17T21:09:28.527Z,1.15
2017-12-17T21:11:59.186Z,1.02
2017-12-17T21:14:29.285Z,0.93
2017-12-17T21:16:59.323Z,0.95
2017-12-17T21:19:29.366Z,0.98
2017-12-17T21:21:59.221Z,0.91
2017-12-17T21:24:29.383Z,0.88
2017-12-17T21:27:35.382Z,0.93
2017-12-17T21:30:05.440Z,0.88
2017-12-17T21:32:35.626Z,0.95
2017-12-17T21:35:05.770Z,0.96
2017-12-17T21:37:35.752Z,1.00
2017-12-17T21:40:05.808Z,0.93
2017-12-17T21:42:35.966Z,0.93
2017-12-17T21:45:06.122Z,0.89
2017-12-17T21:47:36.209Z,0.92
2017-12-17T21:50:06.118Z,0.86
2017-12-17T21:52:36.367Z,0.85
2017-12-17T21:55:07.172Z,0.89
2017-12-17T21:57:37.804Z,0.82
2017-12-17T22:00:07.692Z,0.89
2017-12-17T22:02:37.839Z,0.89
2017-12-17T22:05:07.755Z,0.84
2017-12-17T22:07:37.698Z,0.81
2017-12-17T22:10:07.612Z,0.77
2017-12-17T22:12:37.615Z,0.79
2017-12-17T22:15:07.719Z,0.85
2017-12-17T22:17:37.774Z,0.84
2017-12-17T22:20:08.554Z,0.81
2017-12-17T22:22:38.603Z,0.81
2017-12-17T22:25:09.424Z,0.78
2017-12-17T22:27:39.360Z,0.74
2017-12-17T22:30:12.671Z,0.75
2017-12-17T22:32:42.633Z,0.69
2017-12-17T22:35:12.605Z,0.68
2017-12-17T22:37:42.320Z,0.70
2017-12-17T22:40:12.325Z,0.82
2017-12-17T22:42:42.217Z,0.78
2017-12-17T22:45:17.911Z,0.75
2017-12-17T22:53:09.876Z,0.69
2017-12-17T22:55:40.043Z,0.89
2017-12-17T22:58:11.210Z,0.79
2017-12-17T23:00:41.136Z,0.82
2017-12-17T23:03:10.944Z,0.82
2017-12-17T23:05:40.970Z,0.88
2017-12-17T23:08:14.376Z,0.89
2017-12-17T23:10:44.363Z,0.86
2017-12-17T23:15:57.912Z,0.84
2017-12-17T23:18:27.898Z,0.85
2017-12-17T23:20:57.847Z,0.78
2017-12-17T23:23:28.400Z,0.75
2017-12-17T23:26:08.392Z,0.79
2017-12-17T23:28:41.298Z,0.78
2017-12-17T23:31:13.542Z,0.75
2017-12-17T23:33:44.514Z,0.85
2017-12-17T23:36:15.249Z,0.73
2017-12-17T23:38:45.398Z,0.76
2017-12-17T23:41:17.601Z,0.70
2017-12-17T23:43:48.181Z,0.71
2017-12-17T23:46:18.329Z,0.77
2017-12-17T23:48:48.339Z,0.73
2017-12-17T23:51:19.601Z,0.71
2017-12-17T23:53:49.522Z,0.77
2017-12-17T23:56:19.443Z,0.78
2017-12-17T23:58:49.398Z,0.74
